メインページ
METAR-TAF:

METAR-TAF

空港 :

ディオリ・アマニ国際空港

ニアメ, ニジェール

緯度: 13-29N, 経度: 002-10E, 海抜: 223m

現時点の気象観測

当レポートは1時間0分前の03:00(UTC)に作成
東/北東の風 4kt
気温 20°C
湿度 26%
気圧 1012 hPa
視程10km以上
1,500メートル以下は雲なし、積乱雲なし

METAR: DRRN 130300Z 06004KT CAVOK 20/M00 Q1012 NOSIG

時間: 05:00 (04:00 UTC)

予報

当レポートは5時間0分前の23:00(UTC)に作成
予報は13日の 00時(UTC)から 14日の 06時(UTC)まで有効
の風 8kt
視程: 8000m
13日の 06時(UTC)から 13日の 09時(UTC)まで一時的に
視程: 3500m
広範な塵
13日の 17時(UTC)から 13日の 20時(UTC)まで一時的に
視程: 3500m
広範な塵

TAF: DRRN 122300Z 1300/1406 08008KT 8000 NSC TEMPO 1306/1309 3500 DU TEMPO 1317/1320 3500 DU

4,000以上の空港の気象観測と天気予報(METAR報とTAF報)

利用可能な観測所は地図上に黄色い丸と赤い丸で示す。

丸の上にカーソルを重ねると観測所名を参照できる。

次にクリックすると気象観測と天気予報を参照できる。

マップの切り替え:黒色「×」印の緑ボタンをクリックして拡大、「-」印の緑ボタンをクリックして縮小、緑色の三角印をクリックして隣りの地図に切り替え


METAR-TAF: